<?xml version="1.0" encoding="UTF-8" standalone="no" ?>
<gpx xmlns="http://www.topografix.com/GPX/1/1" xmlns:xsi="http://www.w3.org/2001/XMLSchema-instance" xsi:schemaLocation="http://www.topografix.com/GPX/1/1 http://www.topografix.com/GPX/1/1/gpx.xsd" version="1.1" creator="VisuGPX - https://www.visugpx.com">
  <metadata>
    <name>Express segréenne 5</name>
  </metadata>
  <trk>
    <name><![CDATA[5km de Segré-21028069]]></name>
    <extensions>
      <line xmlns="http://www.topografix.com/GPX/gpx_style/0/2">
        <color>0000FF</color>
        <width>4</width>
      </line>
    </extensions>
    <trkseg>
      <trkpt lat="47.68869" lon="-0.8897">
        <ele>46</ele>
        <time>2025-05-11T14:24:31Z</time>
      </trkpt>
      <trkpt lat="47.68631" lon="-0.88508">
        <ele>50</ele>
        <time>2025-05-11T14:26:42Z</time>
      </trkpt>
      <trkpt lat="47.68605" lon="-0.88508">
        <ele>51</ele>
        <time>2025-05-11T14:26:50Z</time>
      </trkpt>
      <trkpt lat="47.68591" lon="-0.88526">
        <ele>51</ele>
        <time>2025-05-11T14:26:57Z</time>
      </trkpt>
      <trkpt lat="47.68568" lon="-0.88523">
        <ele>52</ele>
        <time>2025-05-11T14:27:04Z</time>
      </trkpt>
      <trkpt lat="47.68553" lon="-0.8856">
        <ele>51</ele>
        <time>2025-05-11T14:27:14Z</time>
      </trkpt>
      <trkpt lat="47.68534" lon="-0.88939">
        <ele>47</ele>
        <time>2025-05-11T14:28:39Z</time>
      </trkpt>
      <trkpt lat="47.68549" lon="-0.88999">
        <ele>47</ele>
        <time>2025-05-11T14:28:54Z</time>
      </trkpt>
      <trkpt lat="47.68569" lon="-0.89028">
        <ele>47</ele>
        <time>2025-05-11T14:29:03Z</time>
      </trkpt>
      <trkpt lat="47.68614" lon="-0.8908">
        <ele>48</ele>
        <time>2025-05-11T14:29:22Z</time>
      </trkpt>
      <trkpt lat="47.68625" lon="-0.89141">
        <ele>47</ele>
        <time>2025-05-11T14:29:36Z</time>
      </trkpt>
      <trkpt lat="47.68647" lon="-0.89165">
        <ele>47</ele>
        <time>2025-05-11T14:29:45Z</time>
      </trkpt>
      <trkpt lat="47.68867" lon="-0.89142">
        <ele>46</ele>
        <time>2025-05-11T14:30:59Z</time>
      </trkpt>
      <trkpt lat="47.68915" lon="-0.89127">
        <ele>46</ele>
        <time>2025-05-11T14:31:15Z</time>
      </trkpt>
      <trkpt lat="47.6893" lon="-0.89101">
        <ele>47</ele>
        <time>2025-05-11T14:31:23Z</time>
      </trkpt>
      <trkpt lat="47.68923" lon="-0.89077">
        <ele>47</ele>
        <time>2025-05-11T14:31:29Z</time>
      </trkpt>
      <trkpt lat="47.6889" lon="-0.89017">
        <ele>46</ele>
        <time>2025-05-11T14:31:46Z</time>
      </trkpt>
      <trkpt lat="47.6863" lon="-0.8851">
        <ele>50</ele>
        <time>2025-05-11T14:34:09Z</time>
      </trkpt>
      <trkpt lat="47.68601" lon="-0.88492">
        <ele>51</ele>
        <time>2025-05-11T14:34:20Z</time>
      </trkpt>
      <trkpt lat="47.68589" lon="-0.88476">
        <ele>52</ele>
        <time>2025-05-11T14:34:25Z</time>
      </trkpt>
      <trkpt lat="47.68583" lon="-0.88427">
        <ele>52</ele>
        <time>2025-05-11T14:34:36Z</time>
      </trkpt>
      <trkpt lat="47.68302" lon="-0.87861">
        <ele>45</ele>
        <time>2025-05-11T14:37:14Z</time>
      </trkpt>
      <trkpt lat="47.68584" lon="-0.88428">
        <ele>52</ele>
        <time>2025-05-11T14:39:53Z</time>
      </trkpt>
      <trkpt lat="47.68588" lon="-0.88475">
        <ele>52</ele>
        <time>2025-05-11T14:40:03Z</time>
      </trkpt>
      <trkpt lat="47.68569" lon="-0.88523">
        <ele>52</ele>
        <time>2025-05-11T14:40:16Z</time>
      </trkpt>
      <trkpt lat="47.68553" lon="-0.8856">
        <ele>51</ele>
        <time>2025-05-11T14:40:26Z</time>
      </trkpt>
      <trkpt lat="47.68533" lon="-0.88939">
        <ele>47</ele>
        <time>2025-05-11T14:41:51Z</time>
      </trkpt>
      <trkpt lat="47.68549" lon="-0.88999">
        <ele>47</ele>
        <time>2025-05-11T14:42:06Z</time>
      </trkpt>
      <trkpt lat="47.6857" lon="-0.89027">
        <ele>47</ele>
        <time>2025-05-11T14:42:15Z</time>
      </trkpt>
      <trkpt lat="47.68613" lon="-0.89079">
        <ele>48</ele>
        <time>2025-05-11T14:42:33Z</time>
      </trkpt>
      <trkpt lat="47.68625" lon="-0.8914">
        <ele>47</ele>
        <time>2025-05-11T14:42:48Z</time>
      </trkpt>
      <trkpt lat="47.68633" lon="-0.89163">
        <ele>47</ele>
        <time>2025-05-11T14:42:54Z</time>
      </trkpt>
      <trkpt lat="47.68623" lon="-0.89205">
        <ele>48</ele>
        <time>2025-05-11T14:43:04Z</time>
      </trkpt>
      <trkpt lat="47.68634" lon="-0.89275">
        <ele>47</ele>
        <time>2025-05-11T14:43:20Z</time>
      </trkpt>
      <trkpt lat="47.68663" lon="-0.89355">
        <ele>46</ele>
        <time>2025-05-11T14:43:40Z</time>
      </trkpt>
      <trkpt lat="47.68692" lon="-0.89417">
        <ele>45</ele>
        <time>2025-05-11T14:43:57Z</time>
      </trkpt>
      <trkpt lat="47.68715" lon="-0.89466">
        <ele>45</ele>
        <time>2025-05-11T14:44:10Z</time>
      </trkpt>
      <trkpt lat="47.68808" lon="-0.89471">
        <ele>46</ele>
        <time>2025-05-11T14:44:42Z</time>
      </trkpt>
      <trkpt lat="47.68872" lon="-0.89459">
        <ele>44</ele>
        <time>2025-05-11T14:45:03Z</time>
      </trkpt>
      <trkpt lat="47.68958" lon="-0.89371">
        <ele>42</ele>
        <time>2025-05-11T14:45:38Z</time>
      </trkpt>
      <trkpt lat="47.68959" lon="-0.89349">
        <ele>42</ele>
        <time>2025-05-11T14:45:43Z</time>
      </trkpt>
      <trkpt lat="47.68876" lon="-0.89186">
        <ele>45</ele>
        <time>2025-05-11T14:46:29Z</time>
      </trkpt>
      <trkpt lat="47.68877" lon="-0.8916">
        <ele>46</ele>
        <time>2025-05-11T14:46:35Z</time>
      </trkpt>
      <trkpt lat="47.68916" lon="-0.89127">
        <ele>46</ele>
        <time>2025-05-11T14:46:50Z</time>
      </trkpt>
      <trkpt lat="47.68931" lon="-0.89101">
        <ele>47</ele>
        <time>2025-05-11T14:46:57Z</time>
      </trkpt>
      <trkpt lat="47.68923" lon="-0.89077">
        <ele>47</ele>
        <time>2025-05-11T14:47:03Z</time>
      </trkpt>
      <trkpt lat="47.6889" lon="-0.89016">
        <ele>46</ele>
        <time>2025-05-11T14:47:21Z</time>
      </trkpt>
      <trkpt lat="47.68781" lon="-0.888">
        <ele>47</ele>
        <time>2025-05-11T14:48:21Z</time>
      </trkpt>
      <trkpt lat="47.68864" lon="-0.88709">
        <ele>46</ele>
        <time>2025-05-11T14:48:56Z</time>
      </trkpt>
      <trkpt lat="47.68872" lon="-0.88725">
        <ele>46</ele>
        <time>2025-05-11T14:49:00Z</time>
      </trkpt>
      <trkpt lat="47.68911" lon="-0.88731">
        <ele>46</ele>
        <time>2025-05-11T14:49:13Z</time>
      </trkpt>
      <trkpt lat="47.68924" lon="-0.88747">
        <ele>46</ele>
        <time>2025-05-11T14:49:19Z</time>
      </trkpt>
      <trkpt lat="47.68916" lon="-0.88763">
        <ele>46</ele>
        <time>2025-05-11T14:49:24Z</time>
      </trkpt>
      <trkpt lat="47.6897" lon="-0.88862">
        <ele>46</ele>
        <time>2025-05-11T14:49:52Z</time>
      </trkpt>
      <trkpt lat="47.68974" lon="-0.88894">
        <ele>47</ele>
        <time>2025-05-11T14:49:59Z</time>
      </trkpt>
      <trkpt lat="47.68963" lon="-0.88918">
        <ele>47</ele>
        <time>2025-05-11T14:50:06Z</time>
      </trkpt>
      <trkpt lat="47.6895" lon="-0.88924">
        <ele>46</ele>
        <time>2025-05-11T14:50:11Z</time>
      </trkpt>
      <trkpt lat="47.68931" lon="-0.88917">
        <ele>46</ele>
        <time>2025-05-11T14:50:17Z</time>
      </trkpt>
      <trkpt lat="47.68898" lon="-0.8886">
        <ele>46</ele>
        <time>2025-05-11T14:50:34Z</time>
      </trkpt>
    </trkseg>
  </trk>
</gpx>